sensor_id;sensor_type;location;lat;lon;timestamp;pressure;altitude;pressure_sealevel;temperature;humidity
65800;BME280;52544;48.116;11.660;2023-04-15T00:01:08;94583.84;;;4.59;100.00
65800;BME280;52544;48.116;11.660;2023-04-15T00:03:34;94577.28;;;4.65;100.00
65800;BME280;52544;48.116;11.660;2023-04-15T00:06:00;94572.06;;;4.65;100.00
65800;BME280;52544;48.116;11.660;2023-04-15T00:08:26;94572.53;;;4.70;100.00
65800;BME280;52544;48.116;11.660;2023-04-15T00:10:51;94572.38;;;4.71;100.00
65800;BME280;52544;48.116;11.660;2023-04-15T00:13:17;94569.53;;;4.74;100.00
65800;BME280;52544;48.116;11.660;2023-04-15T00:15:42;94565.25;;;4.73;100.00
65800;BME280;52544;48.116;11.660;2023-04-15T00:18:08;94571.00;;;4.67;100.00
65800;BME280;52544;48.116;11.660;2023-04-15T00:20:34;94566.22;;;4.61;100.00
65800;BME280;52544;48.116;11.660;2023-04-15T00:23:01;94565.75;;;4.67;100.00
65800;BME280;52544;48.116;11.660;2023-04-15T00:25:28;94569.06;;;4.69;100.00
65800;BME280;52544;48.116;11.660;2023-04-15T00:27:53;94553.94;;;4.62;100.00
65800;BME280;52544;48.116;11.660;2023-04-15T00:30:19;94553.94;;;4.62;100.00
65800;BME280;52544;48.116;11.660;2023-04-15T00:32:44;94546.44;;;4.57;100.00
65800;BME280;52544;48.116;11.660;2023-04-15T00:35:11;94552.41;;;4.59;100.00
65800;BME280;52544;48.116;11.660;2023-04-15T00:37:36;94558.13;;;4.64;100.00
65800;BME280;52544;48.116;11.660;2023-04-15T00:40:02;94550.13;;;4.66;100.00
65800;BME280;52544;48.116;11.660;2023-04-15T00:42:30;94546.31;;;4.70;100.00
65800;BME280;52544;48.116;11.660;2023-04-15T00:44:56;94546.66;;;4.65;100.00
65800;BME280;52544;48.116;11.660;2023-04-15T00:47:21;94537.03;;;4.66;100.00
65800;BME280;52544;48.116;11.660;2023-04-15T00:49:47;94545.84;;;4.65;100.00
65800;BME280;52544;48.116;11.660;2023-04-15T00:52:12;94543.09;;;4.66;100.00
65800;BME280;52544;48.116;11.660;2023-04-15T00:54:38;94551.91;;;4.65;100.00
65800;BME280;52544;48.116;11.660;2023-04-15T00:57:04;94548.81;;;4.60;100.00
65800;BME280;52544;48.116;11.660;2023-04-15T00:59:32;94552.16;;;4.62;100.00
65800;BME280;52544;48.116;11.660;2023-04-15T01:01:58;94549.78;;;4.59;100.00
65800;BME280;52544;48.116;11.660;2023-04-15T01:04:23;94552.97;;;4.63;100.00
65800;BME280;52544;48.116;11.660;2023-04-15T01:06:49;94556.22;;;4.55;100.00
65800;BME280;52544;48.116;11.660;2023-04-15T01:09:14;94554.78;;;4.51;100.00
65800;BME280;52544;48.116;11.660;2023-04-15T01:11:40;94550.59;;;4.48;100.00
65800;BME280;52544;48.116;11.660;2023-04-15T01:14:06;94546.31;;;4.47;100.00
65800;BME280;52544;48.116;11.660;2023-04-15T01:16:33;94542.63;;;4.50;100.00
65800;BME280;52544;48.116;11.660;2023-04-15T01:18:58;94548.72;;;4.50;100.00
65800;BME280;52544;48.116;11.660;2023-04-15T01:21:24;94547.88;;;4.39;100.00
65800;BME280;52544;48.116;11.660;2023-04-15T01:23:50;94544.91;;;4.43;100.00
65800;BME280;52544;48.116;11.660;2023-04-15T01:26:17;94546.44;;;4.46;100.00
65800;BME280;52544;48.116;11.660;2023-04-15T01:28:43;94545.59;;;4.45;100.00
65800;BME280;52544;48.116;11.660;2023-04-15T01:31:13;94548.72;;;4.50;100.00
65800;BME280;52544;48.116;11.660;2023-04-15T01:33:40;94548.94;;;4.59;100.00
65800;BME280;52544;48.116;11.660;2023-04-15T01:36:08;94557.66;;;4.59;100.00
65800;BME280;52544;48.116;11.660;2023-04-15T01:38:35;94555.03;;;4.59;100.00
65800;BME280;52544;48.116;11.660;2023-04-15T01:41:01;94555.00;;;4.70;100.00
65800;BME280;52544;48.116;11.660;2023-04-15T01:43:28;94552.50;;;4.69;100.00
65800;BME280;52544;48.116;11.660;2023-04-15T01:45:53;94551.44;;;4.60;100.00
65800;BME280;52544;48.116;11.660;2023-04-15T01:48:19;94557.97;;;4.66;100.00
65800;BME280;52544;48.116;11.660;2023-04-15T01:50:44;94550.94;;;4.66;100.00
65800;BME280;52544;48.116;11.660;2023-04-15T01:53:10;94550.94;;;4.66;100.00
65800;BME280;52544;48.116;11.660;2023-04-15T01:55:36;94556.19;;;4.66;100.00
65800;BME280;52544;48.116;11.660;2023-04-15T01:58:02;94561.06;;;4.71;100.00
65800;BME280;52544;48.116;11.660;2023-04-15T02:00:28;94551.69;;;4.68;100.00
65800;BME280;52544;48.116;11.660;2023-04-15T02:02:54;94552.50;;;4.69;100.00
65800;BME280;52544;48.116;11.660;2023-04-15T02:05:19;94546.66;;;4.65;100.00
65800;BME280;52544;48.116;11.660;2023-04-15T02:07:45;94554.31;;;4.68;100.00
65800;BME280;52544;48.116;11.660;2023-04-15T02:10:10;94545.47;;;4.58;100.00
65800;BME280;52544;48.116;11.660;2023-04-15T02:12:38;94547.88;;;4.61;100.00
65800;BME280;52544;48.116;11.660;2023-04-15T02:15:04;94548.81;;;4.60;100.00
65800;BME280;52544;48.116;11.660;2023-04-15T02:17:29;94540.25;;;4.58;100.00
65800;BME280;52544;48.116;11.660;2023-04-15T02:19:55;94544.78;;;4.56;100.00
65800;BME280;52544;48.116;11.660;2023-04-15T02:22:21;94551.69;;;4.68;100.00
65800;BME280;52544;48.116;11.660;2023-04-15T02:24:46;94552.28;;;4.72;100.00
65800;BME280;52544;48.116;11.660;2023-04-15T02:27:16;94546.19;;;4.71;100.00
65800;BME280;52544;48.116;11.660;2023-04-15T02:29:45;94544.16;;;4.75;100.00
65800;BME280;52544;48.116;11.660;2023-04-15T02:32:13;94544.88;;;4.77;100.00
65800;BME280;52544;48.116;11.660;2023-04-15T02:34:39;94538.91;;;4.75;100.00
65800;BME280;52544;48.116;11.660;2023-04-15T02:37:08;94540.22;;;4.81;100.00
65800;BME280;52544;48.116;11.660;2023-04-15T02:39:34;94541.06;;;4.81;100.00
65800;BME280;52544;48.116;11.660;2023-04-15T02:41:59;94539.97;;;4.84;100.00
65800;BME280;52544;48.116;11.660;2023-04-15T02:44:25;94529.00;;;4.90;100.00
65800;BME280;52544;48.116;11.660;2023-04-15T02:46:52;94531.88;;;4.87;100.00
65800;BME280;52544;48.116;11.660;2023-04-15T02:49:19;94531.75;;;4.88;100.00
65800;BME280;52544;48.116;11.660;2023-04-15T02:51:45;94530.44;;;4.94;100.00
65800;BME280;52544;48.116;11.660;2023-04-15T02:54:21;94527.09;;;4.92;100.00
65800;BME280;52544;48.116;11.660;2023-04-15T02:56:50;94540.69;;;4.86;100.00
65800;BME280;52544;48.116;11.660;2023-04-15T02:59:16;94539.97;;;4.84;100.00
65800;BME280;52544;48.116;11.660;2023-04-15T03:01:41;94543.78;;;4.80;100.00
65800;BME280;52544;48.116;11.660;2023-04-15T03:04:07;94547.97;;;4.71;100.00
65800;BME280;52544;48.116;11.660;2023-04-15T03:06:33;94542.97;;;4.79;100.00
65800;BME280;52544;48.116;11.660;2023-04-15T03:08:59;94552.84;;;4.75;100.00
65800;BME280;52544;48.116;11.660;2023-04-15T03:11:25;94548.66;;;4.84;100.00
65800;BME280;52544;48.116;11.660;2023-04-15T03:13:51;94548.44;;;4.87;100.00
65800;BME280;52544;48.116;11.660;2023-04-15T03:16:17;94560.38;;;4.80;100.00
65800;BME280;52544;48.116;11.660;2023-04-15T03:18:42;94555.00;;;4.82;100.00
65800;BME280;52544;48.116;11.660;2023-04-15T03:21:08;94554.28;;;4.80;100.00
65800;BME280;52544;48.116;11.660;2023-04-15T03:23:33;94555.69;;;4.84;100.00
65800;BME280;52544;48.116;11.660;2023-04-15T03:26:02;94551.06;;;4.87;100.00
65800;BME280;52544;48.116;11.660;2023-04-15T03:28:27;94554.72;;;4.96;100.00
65800;BME280;52544;48.116;11.660;2023-04-15T03:30:54;94555.69;;;4.95;100.00
65800;BME280;52544;48.116;11.660;2023-04-15T03:33:19;94556.75;;;4.92;100.00
65800;BME280;52544;48.116;11.660;2023-04-15T03:35:45;94567.59;;;4.88;100.00
65800;BME280;52544;48.116;11.660;2023-04-15T03:38:10;94561.31;;;4.90;100.00
65800;BME280;52544;48.116;11.660;2023-04-15T03:40:37;94562.13;;;4.80;100.00
65800;BME280;52544;48.116;11.660;2023-04-15T03:43:02;94557.84;;;4.79;100.00
65800;BME280;52544;48.116;11.660;2023-04-15T03:45:28;94558.81;;;4.89;100.00
65800;BME280;52544;48.116;11.660;2023-04-15T03:47:53;94554.72;;;4.96;100.00
65800;BME280;52544;48.116;11.660;2023-04-15T03:50:18;94561.31;;;4.90;100.00
65800;BME280;52544;48.116;11.660;2023-04-15T03:52:44;94559.28;;;4.94;100.00
65800;BME280;52544;48.116;11.660;2023-04-15T03:55:10;94559.38;;;4.92;100.00
65800;BME280;52544;48.116;11.660;2023-04-15T03:57:36;94558.31;;;4.95;100.00
65800;BME280;52544;48.116;11.660;2023-04-15T04:00:07;94559.75;;;4.88;100.00
65800;BME280;52544;48.116;11.660;2023-04-15T04:02:36;94562.63;;;4.85;100.00
65800;BME280;52544;48.116;11.660;2023-04-15T04:05:01;94565.47;;;4.70;100.00
65800;BME280;52544;48.116;11.660;2023-04-15T04:07:26;94568.34;;;4.79;100.00
65800;BME280;52544;48.116;11.660;2023-04-15T04:09:52;94564.19;;;4.76;100.00
65800;BME280;52544;48.116;11.660;2023-04-15T04:12:17;94567.63;;;4.76;100.00
65800;BME280;52544;48.116;11.660;2023-04-15T04:14:43;94566.44;;;4.69;100.00
65800;BME280;52544;48.116;11.660;2023-04-15T04:17:08;94566.44;;;4.58;100.00
65800;BME280;52544;48.116;11.660;2023-04-15T04:19:34;94563.59;;;4.50;100.00
65800;BME280;52544;48.116;11.660;2023-04-15T04:22:01;94563.09;;;4.45;100.00
65800;BME280;52544;48.116;11.660;2023-04-15T04:24:26;94563.84;;;4.47;100.00
65800;BME280;52544;48.116;11.660;2023-04-15T04:26:51;94562.88;;;4.48;100.00
65800;BME280;52544;48.116;11.660;2023-04-15T04:29:17;94559.31;;;4.60;100.00
65800;BME280;52544;48.116;11.660;2023-04-15T04:31:42;94562.03;;;4.59;100.00
65800;BME280;52544;48.116;11.660;2023-04-15T04:34:08;94565.16;;;4.64;100.00
65800;BME280;52544;48.116;11.660;2023-04-15T04:36:33;94563.22;;;4.66;100.00
65800;BME280;52544;48.116;11.660;2023-04-15T04:38:59;94563.59;;;4.72;100.00
65800;BME280;52544;48.116;11.660;2023-04-15T04:41:25;94560.72;;;4.75;100.00
65800;BME280;52544;48.116;11.660;2023-04-15T04:43:51;94561.44;;;4.78;100.00
65800;BME280;52544;48.116;11.660;2023-04-15T04:46:16;94569.53;;;4.74;100.00
65800;BME280;52544;48.116;11.660;2023-04-15T04:48:42;94566.91;;;4.74;100.00
65800;BME280;52544;48.116;11.660;2023-04-15T04:51:07;94571.91;;;4.78;100.00
65800;BME280;52544;48.116;11.660;2023-04-15T04:53:33;94582.19;;;4.81;100.00
65800;BME280;52544;48.116;11.660;2023-04-15T04:55:59;94573.34;;;4.82;100.00
65800;BME280;52544;48.116;11.660;2023-04-15T04:58:24;94571.06;;;4.88;100.00
65800;BME280;52544;48.116;11.660;2023-04-15T05:00:50;94577.38;;;4.97;100.00
65800;BME280;52544;48.116;11.660;2023-04-15T05:03:16;94565.81;;;4.99;100.00
65800;BME280;52544;48.116;11.660;2023-04-15T05:05:41;94570.72;;;4.93;100.00
65800;BME280;52544;48.116;11.660;2023-04-15T05:08:07;94566.69;;;4.89;100.00
65800;BME280;52544;48.116;11.660;2023-04-15T05:10:33;94560.56;;;4.88;100.00
65800;BME280;52544;48.116;11.660;2023-04-15T05:12:58;94561.53;;;4.87;100.00
65800;BME280;52544;48.116;11.660;2023-04-15T05:15:23;94566.91;;;4.86;100.00
65800;BME280;52544;48.116;11.660;2023-04-15T05:17:49;94567.38;;;4.91;100.00
65800;BME280;52544;48.116;11.660;2023-04-15T05:20:15;94563.06;;;5.01;100.00
65800;BME280;52544;48.116;11.660;2023-04-15T05:22:41;94570.59;;;4.94;100.00
65800;BME280;52544;48.116;11.660;2023-04-15T05:25:07;94565.81;;;4.99;100.00
65800;BME280;52544;48.116;11.660;2023-04-15T05:27:32;94559.13;;;4.95;100.00
65800;BME280;52544;48.116;11.660;2023-04-15T05:29:58;94563.31;;;4.98;100.00
65800;BME280;52544;48.116;11.660;2023-04-15T05:32:23;94559.00;;;4.97;100.00
65800;BME280;52544;48.116;11.660;2023-04-15T05:34:49;94571.66;;;5.03;100.00
65800;BME280;52544;48.116;11.660;2023-04-15T05:37:14;94561.38;;;5.11;100.00
65800;BME280;52544;48.116;11.660;2023-04-15T05:39:40;94567.22;;;5.04;100.00
65800;BME280;52544;48.116;11.660;2023-04-15T05:42:06;94569.03;;;5.03;100.00
65800;BME280;52544;48.116;11.660;2023-04-15T05:44:32;94564.00;;;5.11;100.00
65800;BME280;52544;48.116;11.660;2023-04-15T05:46:57;94571.88;;;5.11;100.00
65800;BME280;52544;48.116;11.660;2023-04-15T05:49:22;94560.78;;;5.19;100.00
65800;BME280;52544;48.116;11.660;2023-04-15T05:51:48;94570.53;;;5.17;100.00
65800;BME280;52544;48.116;11.660;2023-04-15T05:54:14;94564.91;;;5.21;100.00
65800;BME280;52544;48.116;11.660;2023-04-15T05:56:39;94559.69;;;5.21;100.00
65800;BME280;52544;48.116;11.660;2023-04-15T05:59:05;94570.75;;;5.25;100.00
65800;BME280;52544;48.116;11.660;2023-04-15T06:01:32;94563.63;;;5.27;100.00
65800;BME280;52544;48.116;11.660;2023-04-15T06:03:57;94563.03;;;5.23;100.00
65800;BME280;52544;48.116;11.660;2023-04-15T06:06:23;94565.28;;;5.28;100.00
65800;BME280;52544;48.116;11.660;2023-04-15T06:08:48;94573.00;;;5.30;100.00
65800;BME280;52544;48.116;11.660;2023-04-15T06:11:13;94573.84;;;5.30;100.00
65800;BME280;52544;48.116;11.660;2023-04-15T06:13:39;94569.56;;;5.29;100.00
65800;BME280;52544;48.116;11.660;2023-04-15T06:16:05;94578.72;;;5.35;99.67
65800;BME280;52544;48.116;11.660;2023-04-15T06:18:30;94582.53;;;5.42;98.19
65800;BME280;52544;48.116;11.660;2023-04-15T06:20:56;94578.94;;;5.43;98.87
65800;BME280;52544;48.116;11.660;2023-04-15T06:23:21;94578.44;;;5.49;97.40
65800;BME280;52544;48.116;11.660;2023-04-15T06:25:47;94577.84;;;5.45;97.52
65800;BME280;52544;48.116;11.660;2023-04-15T06:28:12;94578.94;;;5.43;98.24
65800;BME280;52544;48.116;11.660;2023-04-15T06:30:38;94577.03;;;5.45;98.76
65800;BME280;52544;48.116;11.660;2023-04-15T06:33:04;94575.94;;;5.47;98.76
65800;BME280;52544;48.116;11.660;2023-04-15T06:35:30;94578.91;;;5.54;98.35
65800;BME280;52544;48.116;11.660;2023-04-15T06:37:56;94585.44;;;5.60;96.72
65800;BME280;52544;48.116;11.660;2023-04-15T06:40:21;94573.03;;;5.62;96.37
65800;BME280;52544;48.116;11.660;2023-04-15T06:42:46;94576.94;;;5.67;95.77
65800;BME280;52544;48.116;11.660;2023-04-15T06:45:12;94570.72;;;5.68;96.49
65800;BME280;52544;48.116;11.660;2023-04-15T06:47:38;94564.47;;;5.81;94.29
65800;BME280;52544;48.116;11.660;2023-04-15T06:50:04;94578.03;;;5.86;95.21
65800;BME280;52544;48.116;11.660;2023-04-15T06:52:29;94575.03;;;5.90;95.58
65800;BME280;52544;48.116;11.660;2023-04-15T06:54:55;94580.41;;;6.00;94.78
65800;BME280;52544;48.116;11.660;2023-04-15T06:57:20;94586.69;;;6.09;92.14
65800;BME280;52544;48.116;11.660;2023-04-15T06:59:46;94584.09;;;6.18;90.59
65800;BME280;52544;48.116;11.660;2023-04-15T07:02:12;94585.78;;;6.19;90.41
65800;BME280;52544;48.116;11.660;2023-04-15T07:04:38;94585.97;;;6.28;88.79
65800;BME280;52544;48.116;11.660;2023-04-15T07:07:04;94589.56;;;6.26;88.41
65800;BME280;52544;48.116;11.660;2023-04-15T07:09:30;94593.00;;;6.27;87.31
65800;BME280;52544;48.116;11.660;2023-04-15T07:11:56;94584.94;;;6.40;87.79
65800;BME280;52544;48.116;11.660;2023-04-15T07:14:22;94592.16;;;6.47;85.97
65800;BME280;52544;48.116;11.660;2023-04-15T07:16:47;94581.44;;;6.60;85.30
65800;BME280;52544;48.116;11.660;2023-04-15T07:19:12;94590.47;;;6.67;83.99
65800;BME280;52544;48.116;11.660;2023-04-15T07:21:38;94584.69;;;6.73;83.96
65800;BME280;52544;48.116;11.660;2023-04-15T07:24:04;94593.56;;;6.82;83.21
65800;BME280;52544;48.116;11.660;2023-04-15T07:26:29;94598.75;;;6.93;81.27
65800;BME280;52544;48.116;11.660;2023-04-15T07:28:54;94599.56;;;6.94;80.76
65800;BME280;52544;48.116;11.660;2023-04-15T07:31:20;94602.06;;;6.95;79.99
65800;BME280;52544;48.116;11.660;2023-04-15T07:33:46;94602.22;;;6.94;78.95
65800;BME280;52544;48.116;11.660;2023-04-15T07:36:11;94603.03;;;6.94;79.87
65800;BME280;52544;48.116;11.660;2023-04-15T07:38:38;94607.63;;;7.02;79.00
65800;BME280;52544;48.116;11.660;2023-04-15T07:41:03;94596.97;;;7.04;77.87
65800;BME280;52544;48.116;11.660;2023-04-15T07:43:29;94599.09;;;7.10;78.02
65800;BME280;52544;48.116;11.660;2023-04-15T07:45:54;94603.22;;;7.12;76.79
65800;BME280;52544;48.116;11.660;2023-04-15T07:48:20;94602.41;;;7.21;77.22
65800;BME280;52544;48.116;11.660;2023-04-15T07:50:45;94606.03;;;7.20;78.27
65800;BME280;52544;48.116;11.660;2023-04-15T07:53:10;94600.66;;;7.32;77.94
65800;BME280;52544;48.116;11.660;2023-04-15T07:55:36;94596.09;;;7.34;76.00
65800;BME280;52544;48.116;11.660;2023-04-15T07:58:01;94596.66;;;7.37;75.70
65800;BME280;52544;48.116;11.660;2023-04-15T08:00:26;94592.53;;;7.54;75.80
65800;BME280;52544;48.116;11.660;2023-04-15T08:02:52;94588.09;;;7.64;76.50
65800;BME280;52544;48.116;11.660;2023-04-15T08:05:18;94577.56;;;7.84;75.29
65800;BME280;52544;48.116;11.660;2023-04-15T08:07:44;94579.78;;;7.98;74.93
65800;BME280;52544;48.116;11.660;2023-04-15T08:10:09;94585.19;;;8.06;73.65
65800;BME280;52544;48.116;11.660;2023-04-15T08:12:35;94582.28;;;8.09;72.25
65800;BME280;52544;48.116;11.660;2023-04-15T08:15:01;94586.97;;;8.15;72.91
65800;BME280;52544;48.116;11.660;2023-04-15T08:17:27;94575.47;;;8.26;72.44
65800;BME280;52544;48.116;11.660;2023-04-15T08:19:52;94580.03;;;8.43;71.18
65800;BME280;52544;48.116;11.660;2023-04-15T08:22:18;94578.19;;;8.63;71.57
65800;BME280;52544;48.116;11.660;2023-04-15T08:24:43;94579.09;;;8.82;70.27
65800;BME280;52544;48.116;11.660;2023-04-15T08:27:09;94583.22;;;8.94;69.23
65800;BME280;52544;48.116;11.660;2023-04-15T08:29:35;94577.94;;;8.94;69.00
65800;BME280;52544;48.116;11.660;2023-04-15T08:32:00;94582.59;;;9.00;68.65
65800;BME280;52544;48.116;11.660;2023-04-15T08:34:26;94579.88;;;8.92;66.35
65800;BME280;52544;48.116;11.660;2023-04-15T08:36:52;94587.00;;;8.82;67.62
65800;BME280;52544;48.116;11.660;2023-04-15T08:39:17;94580.94;;;8.71;69.56
65800;BME280;52544;48.116;11.660;2023-04-15T08:41:47;94590.75;;;8.79;70.21
65800;BME280;52544;48.116;11.660;2023-04-15T08:44:16;94582.59;;;8.72;69.72
65800;BME280;52544;48.116;11.660;2023-04-15T08:46:42;94584.13;;;8.75;67.45
65800;BME280;52544;48.116;11.660;2023-04-15T08:49:11;94582.31;;;8.75;69.97
65800;BME280;52544;48.116;11.660;2023-04-15T08:51:40;94578.41;;;8.80;69.60
65800;BME280;52544;48.116;11.660;2023-04-15T08:54:07;94588.53;;;8.74;67.69
65800;BME280;52544;48.116;11.660;2023-04-15T08:56:34;94591.88;;;8.76;66.57
65800;BME280;52544;48.116;11.660;2023-04-15T08:59:01;94591.78;;;8.68;68.08
65800;BME280;52544;48.116;11.660;2023-04-15T09:01:27;94597.19;;;8.57;67.66
65800;BME280;52544;48.116;11.660;2023-04-15T09:03:53;94595.28;;;8.59;68.85
65800;BME280;52544;48.116;11.660;2023-04-15T09:06:20;94600.53;;;8.59;69.29
65800;BME280;52544;48.116;11.660;2023-04-15T09:08:46;94594.84;;;8.64;68.08
65800;BME280;52544;48.116;11.660;2023-04-15T09:11:12;94596.22;;;8.68;68.94
65800;BME280;52544;48.116;11.660;2023-04-15T09:13:38;94605.09;;;8.67;68.64
65800;BME280;52544;48.116;11.660;2023-04-15T09:16:06;94597.44;;;8.73;69.45
65800;BME280;52544;48.116;11.660;2023-04-15T09:18:33;94596.88;;;8.80;70.10
65800;BME280;52544;48.116;11.660;2023-04-15T09:21:17;94600.47;;;8.79;67.55
65800;BME280;52544;48.116;11.660;2023-04-15T09:23:56;94602.97;;;8.80;69.59
65800;BME280;52544;48.116;11.660;2023-04-15T09:26:36;94606.56;;;8.89;67.17
65800;BME280;52544;48.116;11.660;2023-04-15T09:29:08;94607.91;;;9.02;66.99
65800;BME280;52544;48.116;11.660;2023-04-15T09:31:37;94616.63;;;9.03;67.20
65800;BME280;52544;48.116;11.660;2023-04-15T09:34:03;94609.31;;;8.97;67.36
65800;BME280;52544;48.116;11.660;2023-04-15T09:36:28;94609.00;;;9.00;66.66
65800;BME280;52544;48.116;11.660;2023-04-15T09:38:59;94616.91;;;9.00;66.88
65800;BME280;52544;48.116;11.660;2023-04-15T09:41:25;94611.25;;;8.95;68.43
65800;BME280;52544;48.116;11.660;2023-04-15T09:43:51;94613.88;;;8.95;68.80
65800;BME280;52544;48.116;11.660;2023-04-15T09:46:17;94618.72;;;9.09;66.60
65800;BME280;52544;48.116;11.660;2023-04-15T09:48:42;94618.44;;;9.02;67.42
65800;BME280;52544;48.116;11.660;2023-04-15T09:51:08;94605.84;;;8.96;69.20
65800;BME280;52544;48.116;11.660;2023-04-15T09:53:34;94617.91;;;8.99;71.05
65800;BME280;52544;48.116;11.660;2023-04-15T09:56:01;94617.34;;;8.95;71.08
65800;BME280;52544;48.116;11.660;2023-04-15T09:58:31;94617.66;;;8.92;71.71
65800;BME280;52544;48.116;11.660;2023-04-15T10:00:59;94623.06;;;8.91;71.79
65800;BME280;52544;48.116;11.660;2023-04-15T10:03:28;94617.06;;;8.98;70.67
65800;BME280;52544;48.116;11.660;2023-04-15T10:05:55;94622.41;;;8.89;72.17
65800;BME280;52544;48.116;11.660;2023-04-15T10:08:23;94612.72;;;8.80;72.36
65800;BME280;52544;48.116;11.660;2023-04-15T10:10:49;94616.72;;;8.74;71.87
65800;BME280;52544;48.116;11.660;2023-04-15T10:13:21;94619.94;;;8.68;72.33
65800;BME280;52544;48.116;11.660;2023-04-15T10:15:56;94618.94;;;8.79;70.85
65800;BME280;52544;48.116;11.660;2023-04-15T10:18:25;94621.56;;;8.88;70.78
65800;BME280;52544;48.116;11.660;2023-04-15T10:20:52;94615.25;;;8.99;68.97
65800;BME280;52544;48.116;11.660;2023-04-15T10:23:18;94619.03;;;8.96;69.56
65800;BME280;52544;48.116;11.660;2023-04-15T10:25:45;94618.59;;;9.01;68.10
65800;BME280;52544;48.116;11.660;2023-04-15T10:28:11;94623.72;;;9.02;66.94
65800;BME280;52544;48.116;11.660;2023-04-15T10:30:37;94619.28;;;9.03;67.65
65800;BME280;52544;48.116;11.660;2023-04-15T10:33:04;94628.19;;;9.02;67.78
65800;BME280;52544;48.116;11.660;2023-04-15T10:35:31;94627.66;;;8.89;67.58
65800;BME280;52544;48.116;11.660;2023-04-15T10:37:57;94634.59;;;8.90;68.66
65800;BME280;52544;48.116;11.660;2023-04-15T10:40:27;94629.22;;;8.82;71.89
65800;BME280;52544;48.116;11.660;2023-04-15T10:42:54;94638.50;;;8.86;68.84
65800;BME280;52544;48.116;11.660;2023-04-15T10:45:24;94629.31;;;8.90;69.77
65800;BME280;52544;48.116;11.660;2023-04-15T10:48:02;94637.34;;;8.98;71.73
65800;BME280;52544;48.116;11.660;2023-04-15T10:50:29;94634.00;;;9.06;69.19
65800;BME280;52544;48.116;11.660;2023-04-15T10:52:55;94642.47;;;9.09;68.04
65800;BME280;52544;48.116;11.660;2023-04-15T10:55:25;94638.97;;;9.09;68.07
65800;BME280;52544;48.116;11.660;2023-04-15T10:57:58;94640.88;;;9.16;68.18
65800;BME280;52544;48.116;11.660;2023-04-15T11:00:27;94630.59;;;9.23;70.15
65800;BME280;52544;48.116;11.660;2023-04-15T11:02:54;94637.78;;;9.31;69.66
65800;BME280;52544;48.116;11.660;2023-04-15T11:05:22;94633.88;;;9.35;67.56
65800;BME280;52544;48.116;11.660;2023-04-15T11:07:50;94640.81;;;9.36;69.39
65800;BME280;52544;48.116;11.660;2023-04-15T11:12:42;94647.75;;;9.37;66.29
65800;BME280;52544;48.116;11.660;2023-04-15T11:17:56;94640.00;;;9.25;65.30
65800;BME280;52544;48.116;11.660;2023-04-15T11:20:22;94635.00;;;9.32;67.33
65800;BME280;52544;48.116;11.660;2023-04-15T11:22:49;94644.44;;;9.35;65.16
65800;BME280;52544;48.116;11.660;2023-04-15T11:25:25;94642.75;;;9.34;65.42
65800;BME280;52544;48.116;11.660;2023-04-15T11:27:52;94646.03;;;9.45;65.06
65800;BME280;52544;48.116;11.660;2023-04-15T11:30:23;94655.81;;;9.35;63.75
65800;BME280;52544;48.116;11.660;2023-04-15T11:32:49;94653.03;;;9.37;63.30
65800;BME280;52544;48.116;11.660;2023-04-15T11:35:16;94655.56;;;9.29;63.67
65800;BME280;52544;48.116;11.660;2023-04-15T11:37:45;94655.47;;;9.20;64.70
65800;BME280;52544;48.116;11.660;2023-04-15T11:40:11;94650.78;;;9.14;65.09
65800;BME280;52544;48.116;11.660;2023-04-15T11:42:37;94647.75;;;9.09;65.09
65800;BME280;52544;48.116;11.660;2023-04-15T11:45:13;94645.00;;;9.01;65.98
65800;BME280;52544;48.116;11.660;2023-04-15T11:47:40;94661.53;;;8.93;65.93
65800;BME280;52544;48.116;11.660;2023-04-15T11:50:32;94653.75;;;8.92;66.87
65800;BME280;52544;48.116;11.660;2023-04-15T11:53:00;94662.66;;;8.91;67.45
65800;BME280;52544;48.116;11.660;2023-04-15T11:55:26;94663.66;;;8.80;67.08
65800;BME280;52544;48.116;11.660;2023-04-15T12:00:33;94666.00;;;8.83;68.12
65800;BME280;52544;48.116;11.660;2023-04-15T12:11:43;94664.09;;;8.75;72.04
65800;BME280;52544;48.116;11.660;2023-04-15T12:16:51;94670.84;;;8.97;68.01
65800;BME280;52544;48.116;11.660;2023-04-15T12:19:39;94673.34;;;8.89;67.16
65800;BME280;52544;48.116;11.660;2023-04-15T12:22:10;94680.03;;;8.84;68.22
65800;BME280;52544;48.116;11.660;2023-04-15T12:24:37;94687.38;;;8.90;66.89
65800;BME280;52544;48.116;11.660;2023-04-15T12:29:30;94680.56;;;8.97;65.96
65800;BME280;52544;48.116;11.660;2023-04-15T12:32:03;94682.66;;;8.93;64.00
65800;BME280;52544;48.116;11.660;2023-04-15T12:34:31;94687.22;;;9.01;63.62
65800;BME280;52544;48.116;11.660;2023-04-15T12:36:57;94687.94;;;8.93;64.20
65800;BME280;52544;48.116;11.660;2023-04-15T12:39:25;94691.22;;;9.05;63.05
65800;BME280;52544;48.116;11.660;2023-04-15T12:41:51;94695.94;;;9.11;61.43
65800;BME280;52544;48.116;11.660;2023-04-15T12:44:17;94699.53;;;9.10;63.01
65800;BME280;52544;48.116;11.660;2023-04-15T12:46:42;94704.25;;;9.16;60.67
65800;BME280;52544;48.116;11.660;2023-04-15T12:49:08;94698.84;;;9.18;61.02
65800;BME280;52544;48.116;11.660;2023-04-15T12:51:33;94704.25;;;9.16;60.49
65800;BME280;52544;48.116;11.660;2023-04-15T12:53:59;94705.06;;;9.26;57.62
65800;BME280;52544;48.116;11.660;2023-04-15T12:56:25;94701.03;;;9.13;58.21
65800;BME280;52544;48.116;11.660;2023-04-15T12:58:51;94709.81;;;9.13;57.61
65800;BME280;52544;48.116;11.660;2023-04-15T13:01:16;94709.56;;;9.07;58.55
65800;BME280;52544;48.116;11.660;2023-04-15T13:03:42;94715.94;;;9.04;59.67
65800;BME280;52544;48.116;11.660;2023-04-15T13:06:07;94710.66;;;9.04;60.90
65800;BME280;52544;48.116;11.660;2023-04-15T13:08:32;94712.34;;;9.05;59.26
65800;BME280;52544;48.116;11.660;2023-04-15T13:10:58;94724.81;;;9.13;55.02
65800;BME280;52544;48.116;11.660;2023-04-15T13:13:24;94720.09;;;9.07;57.46